Terminal Aerodrome Forecast
Issued by NWS

Home | Current Version | Previous Version | Text Only | Print | Product List | Glossary On
Versions: 1 2 3 4 5 6 7 8 9 10 11 12 13 14
000
FTUS41 KBTV 240500
TAFPBG
TAF
KPBG 240524Z 2406/2506 33014G20KT P6SM SKC
     FM241400 33018G28KT P6SM SKC
     FM250000 32008KT P6SM SKC=

USA.gov is the U.S. government's official web portal to all federal, state and local government web resources and services.